Time;durP1;ratioP1;P1;durP2;ratioP2;P2;SDS_P1;SDS_P2;PMS_P1;PMS_P2;Temp;Humidity;BMP_temperature;BMP_pressure;BME280_temperature;BME280_humidity;BME280_pressure;Samples;Min_cycle;Max_cycle;Signal;HPM_P1;HPM_P2
2022/05/17 00:02:09;;;;;;;4.37;3.53;;;;;;;;;;5095061;28;20425;-79
2022/05/17 00:04:35;;;;;;;6.20;4.07;;;;;;;;;;5094585;28;20490;-78
2022/05/17 00:07:01;;;;;;;11.60;4.43;;;;;;;;;;5094983;28;20414;-78
2022/05/17 00:09:27;;;;;;;6.63;3.67;;;;;;;;;;5093587;28;21168;-78
2022/05/17 00:11:56;;;;;;;7.77;3.83;;;;;;;;;;5094661;28;20422;-78
2022/05/17 00:14:22;;;;;;;4.83;3.63;;;;;;;;;;5094605;28;20502;-78
2022/05/17 00:16:48;;;;;;;6.17;3.77;;;;;;;;;;5095030;28;20916;-78
2022/05/17 00:19:16;;;;;;;6.63;4.50;;;;;;;;;;5094916;28;20378;-78
2022/05/17 00:21:42;;;;;;;7.60;3.83;;;;;;;;;;5095053;28;20373;-78
2022/05/17 00:24:08;;;;;;;6.47;3.90;;;;;;;;;;5094086;28;20427;-77
2022/05/17 00:26:34;;;;;;;6.87;3.67;;;;;;;;;;5094740;28;20948;-78
2022/05/17 00:29:01;;;;;;;5.27;4.20;;;;;;;;;;5093619;28;20415;-77
2022/05/17 00:31:27;;;;;;;7.17;4.10;;;;;;;;;;5094904;28;20403;-78
2022/05/17 00:33:53;;;;;;;4.57;3.70;;;;;;;;;;5094068;28;20492;-77
2022/05/17 00:36:20;;;;;;;6.83;4.50;;;;;;;;;;5094652;28;20419;-77
2022/05/17 00:38:46;;;;;;;9.07;4.50;;;;;;;;;;5094602;28;20385;-78
2022/05/17 00:41:12;;;;;;;6.50;3.90;;;;;;;;;;5094554;28;20412;-78
2022/05/17 00:46:28;;;;;;;6.87;4.27;;;;;;;;;;5094264;28;20513;-77
2022/05/17 00:48:55;;;;;;;11.90;4.70;;;;;;;;;;5094669;28;20468;-78
2022/05/17 00:51:24;;;;;;;9.87;4.73;;;;;;;;;;5094830;28;20409;-78
2022/05/17 00:53:51;;;;;;;7.37;4.50;;;;;;;;;;5094813;28;20786;-78
2022/05/17 00:56:19;;;;;;;6.20;4.80;;;;;;;;;;5092677;28;20433;-78
2022/05/17 00:58:58;;;;;;;9.53;5.50;;;;;;;;;;5094090;28;20781;-79
2022/05/17 01:01:25;;;;;;;8.77;4.97;;;;;;;;;;5094026;28;20401;-78
2022/05/17 01:04:01;;;;;;;5.03;4.00;;;;;;;;;;5093550;28;20396;-78
2022/05/17 01:06:38;;;;;;;7.47;3.77;;;;;;;;;;5092261;28;20797;-78
2022/05/17 01:09:04;;;;;;;8.70;4.10;;;;;;;;;;5093826;28;20523;-78
2022/05/17 01:11:31;;;;;;;9.33;5.83;;;;;;;;;;5093702;28;20392;-78
2022/05/17 01:16:42;;;;;;;7.90;4.17;;;;;;;;;;5093843;28;20412;-78
2022/05/17 01:19:09;;;;;;;7.47;4.70;;;;;;;;;;5093955;28;20434;-78
2022/05/17 01:21:35;;;;;;;6.97;4.23;;;;;;;;;;5093779;28;20403;-78
2022/05/17 01:24:01;;;;;;;7.07;4.80;;;;;;;;;;5075178;28;20461;-78
2022/05/17 01:26:29;;;;;;;4.50;3.87;;;;;;;;;;5093580;28;20457;-78
2022/05/17 01:28:55;;;;;;;9.27;4.70;;;;;;;;;;5093909;28;20406;-78
2022/05/17 01:31:21;;;;;;;7.27;5.50;;;;;;;;;;5093414;28;20410;-78
2022/05/17 01:33:47;;;;;;;4.73;4.30;;;;;;;;;;5094309;28;20821;-78
2022/05/17 01:36:16;;;;;;;8.47;4.90;;;;;;;;;;5093367;28;20969;-79
2022/05/17 01:38:50;;;;;;;12.67;5.10;;;;;;;;;;5093243;28;20847;-79
2022/05/17 01:41:16;;;;;;;5.17;4.43;;;;;;;;;;5092068;28;20975;-78
2022/05/17 01:43:42;;;;;;;6.93;4.63;;;;;;;;;;5092981;28;20458;-78
2022/05/17 01:46:09;;;;;;;7.73;4.07;;;;;;;;;;5093237;28;20958;-78
2022/05/17 01:48:36;;;;;;;9.10;4.80;;;;;;;;;;5093179;28;20396;-78
2022/05/17 01:51:02;;;;;;;5.00;4.40;;;;;;;;;;5093389;28;20417;-79
2022/05/17 01:53:28;;;;;;;9.83;4.90;;;;;;;;;;5092849;28;20438;-78
2022/05/17 01:55:54;;;;;;;12.83;5.20;;;;;;;;;;5093110;28;20442;-78
2022/05/17 01:58:21;;;;;;;4.83;4.33;;;;;;;;;;5093123;28;20410;-77
2022/05/17 02:00:47;;;;;;;12.87;5.20;;;;;;;;;;5092959;28;20389;-78
2022/05/17 02:03:13;;;;;;;8.63;4.33;;;;;;;;;;5091485;28;20410;-78
2022/05/17 02:05:39;;;;;;;6.37;4.77;;;;;;;;;;5091762;28;20965;-78
2022/05/17 02:08:05;;;;;;;5.60;4.37;;;;;;;;;;5092932;28;20822;-78
2022/05/17 02:10:31;;;;;;;8.97;4.77;;;;;;;;;;5093013;28;20502;-79
2022/05/17 02:12:58;;;;;;;10.00;5.53;;;;;;;;;;5091273;28;20438;-78
2022/05/17 02:15:25;;;;;;;11.13;5.20;;;;;;;;;;5092862;28;20521;-78
2022/05/17 02:17:51;;;;;;;9.83;6.30;;;;;;;;;;5092898;28;20909;-78
2022/05/17 02:20:18;;;;;;;6.27;5.43;;;;;;;;;;5096218;28;20446;-78
2022/05/17 02:22:44;;;;;;;7.00;4.13;;;;;;;;;;5096893;28;20410;-79
2022/05/17 02:25:11;;;;;;;7.70;4.70;;;;;;;;;;5095327;28;20473;-78
2022/05/17 02:27:37;;;;;;;6.20;5.03;;;;;;;;;;5097031;28;20399;-78
2022/05/17 02:30:04;;;;;;;8.23;4.40;;;;;;;;;;5096790;28;20445;-78
2022/05/17 02:32:30;;;;;;;8.30;5.13;;;;;;;;;;5096621;28;20435;-78
2022/05/17 02:34:56;;;;;;;8.27;5.60;;;;;;;;;;5096426;28;20438;-78
2022/05/17 02:37:22;;;;;;;16.40;5.70;;;;;;;;;;5096753;28;20447;-78
2022/05/17 02:39:48;;;;;;;6.77;4.77;;;;;;;;;;5096830;28;21018;-79
2022/05/17 02:42:14;;;;;;;11.00;5.50;;;;;;;;;;5096715;28;20413;-78
2022/05/17 02:44:40;;;;;;;10.27;5.20;;;;;;;;;;5094825;28;20462;-78
2022/05/17 02:47:07;;;;;;;12.73;5.13;;;;;;;;;;5096453;28;20859;-78
2022/05/17 02:49:33;;;;;;;7.70;5.33;;;;;;;;;;5096552;28;20430;-78
2022/05/17 02:52:03;;;;;;;8.57;5.10;;;;;;;;;;5096566;28;20435;-78
2022/05/17 02:54:28;;;;;;;5.70;4.73;;;;;;;;;;5094578;28;20483;-80
2022/05/17 02:56:55;;;;;;;7.50;5.00;;;;;;;;;;5096265;28;20804;-78
2022/05/17 02:59:21;;;;;;;9.03;4.60;;;;;;;;;;5094942;28;20442;-78
2022/05/17 03:01:47;;;;;;;7.00;4.10;;;;;;;;;;5096274;28;20414;-78
2022/05/17 03:04:14;;;;;;;9.50;5.37;;;;;;;;;;5095770;28;20778;-79
2022/05/17 03:06:43;;;;;;;10.33;5.53;;;;;;;;;;5096160;28;20930;-78
2022/05/17 03:09:09;;;;;;;8.73;4.93;;;;;;;;;;5095953;28;20404;-78
2022/05/17 03:11:36;;;;;;;6.20;4.90;;;;;;;;;;5096211;28;20429;-79
2022/05/17 03:14:03;;;;;;;7.30;4.97;;;;;;;;;;5095640;28;20435;-78
2022/05/17 03:16:33;;;;;;;9.90;5.63;;;;;;;;;;5094636;28;20422;-79
2022/05/17 03:18:59;;;;;;;6.30;5.00;;;;;;;;;;5095764;28;20454;-79
2022/05/17 03:21:25;;;;;;;5.40;4.90;;;;;;;;;;5095746;28;20425;-79
2022/05/17 03:23:52;;;;;;;7.23;4.83;;;;;;;;;;5094436;28;20434;-78
2022/05/17 03:26:18;;;;;;;7.30;5.40;;;;;;;;;;5095774;28;20458;-78
2022/05/17 03:28:44;;;;;;;9.60;6.10;;;;;;;;;;5096010;28;20506;-78
2022/05/17 03:31:10;;;;;;;9.27;5.33;;;;;;;;;;5094447;28;20399;-79
2022/05/17 03:33:37;;;;;;;9.53;5.13;;;;;;;;;;5093934;28;20499;-79
2022/05/17 03:36:03;;;;;;;10.80;5.17;;;;;;;;;;5095717;28;20393;-80
2022/05/17 03:38:29;;;;;;;10.90;5.77;;;;;;;;;;5095015;28;20442;-78
2022/05/17 03:40:58;;;;;;;6.23;4.90;;;;;;;;;;5095539;28;20432;-78
2022/05/17 03:43:24;;;;;;;6.17;4.80;;;;;;;;;;5094920;28;20397;-78
2022/05/17 03:45:50;;;;;;;5.33;4.80;;;;;;;;;;5095396;28;20547;-79
2022/05/17 03:48:16;;;;;;;10.10;5.07;;;;;;;;;;5095719;28;20413;-78
2022/05/17 03:50:42;;;;;;;12.63;5.30;;;;;;;;;;5095494;28;20823;-78
2022/05/17 03:53:08;;;;;;;11.80;5.17;;;;;;;;;;5094947;28;20430;-78
2022/05/17 03:55:35;;;;;;;7.57;4.83;;;;;;;;;;5095049;28;20438;-78
2022/05/17 03:58:01;;;;;;;8.13;4.83;;;;;;;;;;5095232;28;20906;-78
2022/05/17 04:00:27;;;;;;;6.23;4.90;;;;;;;;;;5095025;28;20414;-78
2022/05/17 04:02:53;;;;;;;6.57;5.17;;;;;;;;;;5093552;28;20484;-78
2022/05/17 04:05:20;;;;;;;10.53;5.70;;;;;;;;;;5094907;28;20837;-79
2022/05/17 04:07:46;;;;;;;8.33;4.50;;;;;;;;;;5094918;28;20494;-78
2022/05/17 04:10:13;;;;;;;7.03;4.33;;;;;;;;;;5095092;28;20414;-78
2022/05/17 04:12:39;;;;;;;13.10;4.80;;;;;;;;;;5094963;28;21011;-78
2022/05/17 04:15:07;;;;;;;6.70;4.70;;;;;;;;;;5094630;28;20921;-78
2022/05/17 04:17:33;;;;;;;7.83;4.77;;;;;;;;;;5094801;28;20475;-77
2022/05/17 04:19:59;;;;;;;6.90;4.37;;;;;;;;;;5094531;28;20438;-78
2022/05/17 04:22:25;;;;;;;6.03;4.23;;;;;;;;;;5094421;28;20393;-78
2022/05/17 04:24:55;;;;;;;7.07;4.50;;;;;;;;;;5092986;28;20519;-78
2022/05/17 04:27:22;;;;;;;10.60;4.30;;;;;;;;;;5093253;28;20455;-78
2022/05/17 04:29:48;;;;;;;5.77;4.07;;;;;;;;;;5093198;28;20412;-79
2022/05/17 04:32:14;;;;;;;4.93;4.07;;;;;;;;;;5093082;28;20434;-79
2022/05/17 04:34:40;;;;;;;8.53;4.23;;;;;;;;;;5094004;28;20587;-79
2022/05/17 04:37:06;;;;;;;4.87;4.40;;;;;;;;;;5094725;28;20432;-78
2022/05/17 04:39:32;;;;;;;4.00;3.60;;;;;;;;;;5094575;28;20410;-78
2022/05/17 04:41:58;;;;;;;3.97;3.57;;;;;;;;;;5094317;28;20415;-79
2022/05/17 04:44:24;;;;;;;4.33;3.70;;;;;;;;;;5092982;28;20435;-79
2022/05/17 04:46:50;;;;;;;5.50;3.80;;;;;;;;;;5094209;28;20749;-78
2022/05/17 04:49:16;;;;;;;5.30;3.90;;;;;;;;;;5094284;28;20418;-78
2022/05/17 04:51:42;;;;;;;5.70;3.70;;;;;;;;;;5093996;28;20410;-79
2022/05/17 04:54:08;;;;;;;8.87;3.80;;;;;;;;;;5093729;28;20499;-80
2022/05/17 04:56:34;;;;;;;4.27;3.87;;;;;;;;;;5094165;28;20442;-78
2022/05/17 04:59:00;;;;;;;6.40;3.40;;;;;;;;;;5093955;28;20413;-78
2022/05/17 05:01:27;;;;;;;4.70;3.63;;;;;;;;;;5081947;28;20553;-78
2022/05/17 05:03:53;;;;;;;5.83;4.00;;;;;;;;;;5073208;28;21272;-78
2022/05/17 05:06:19;;;;;;;8.40;3.80;;;;;;;;;;5073626;28;20487;-78
2022/05/17 05:08:45;;;;;;;6.73;3.83;;;;;;;;;;5073814;28;20411;-77
2022/05/17 05:11:11;;;;;;;5.03;3.43;;;;;;;;;;5073727;28;20469;-78
2022/05/17 05:13:37;;;;;;;4.53;3.63;;;;;;;;;;5073370;28;20760;-78
2022/05/17 05:16:08;;;;;;;6.93;4.33;;;;;;;;;;5073623;28;20476;-79
2022/05/17 05:18:34;;;;;;;5.90;3.13;;;;;;;;;;5074959;28;20733;-78
2022/05/17 05:21:09;;;;;;;7.00;3.37;;;;;;;;;;5076676;28;20867;-78
2022/05/17 05:23:35;;;;;;;10.67;4.47;;;;;;;;;;5073383;28;20453;-78
2022/05/17 05:26:02;;;;;;;5.00;3.67;;;;;;;;;;5074206;28;20459;-79
2022/05/17 05:28:28;;;;;;;3.30;3.00;;;;;;;;;;5073722;28;20379;-78
2022/05/17 05:30:55;;;;;;;7.10;3.47;;;;;;;;;;5073934;28;20385;-79
2022/05/17 05:33:21;;;;;;;3.57;3.23;;;;;;;;;;5072148;28;20421;-80
2022/05/17 05:35:47;;;;;;;3.80;2.87;;;;;;;;;;5074092;28;20912;-79
2022/05/17 05:38:13;;;;;;;6.60;3.53;;;;;;;;;;5073653;28;20420;-79
2022/05/17 05:40:40;;;;;;;3.70;3.00;;;;;;;;;;5073716;28;20411;-79
2022/05/17 05:43:06;;;;;;;7.73;3.20;;;;;;;;;;5073257;28;20485;-79
2022/05/17 05:45:32;;;;;;;10.03;3.30;;;;;;;;;;5073211;28;20477;-77
2022/05/17 05:47:59;;;;;;;6.60;3.63;;;;;;;;;;5072188;28;20415;-77
2022/05/17 05:50:25;;;;;;;5.53;3.20;;;;;;;;;;5055600;28;20437;-79
2022/05/17 05:52:51;;;;;;;9.73;3.30;;;;;;;;;;5073232;28;20418;-78
2022/05/17 05:55:21;;;;;;;3.50;3.10;;;;;;;;;;5072789;28;20444;-77
2022/05/17 05:57:48;;;;;;;7.43;3.07;;;;;;;;;;5072062;28;20382;-79
2022/05/17 06:00:15;;;;;;;4.07;3.30;;;;;;;;;;5073049;28;20374;-76
2022/05/17 06:02:41;;;;;;;5.60;3.23;;;;;;;;;;5073019;28;20408;-76
2022/05/17 06:05:07;;;;;;;9.70;2.53;;;;;;;;;;5055003;28;20982;-77
2022/05/17 06:07:35;;;;;;;5.10;2.83;;;;;;;;;;5072003;28;20414;-76
2022/05/17 06:10:01;;;;;;;6.70;2.80;;;;;;;;;;5073045;28;20831;-76
2022/05/17 06:12:27;;;;;;;5.93;2.93;;;;;;;;;;5072713;28;20454;-78
2022/05/17 06:14:54;;;;;;;13.40;4.00;;;;;;;;;;5072689;28;20504;-76
2022/05/17 06:17:24;;;;;;;2.90;2.17;;;;;;;;;;5088412;28;20468;-77
2022/05/17 06:19:50;;;;;;;5.93;2.53;;;;;;;;;;5093181;28;20441;-77
2022/05/17 06:22:16;;;;;;;7.00;2.70;;;;;;;;;;5091911;28;20450;-75
2022/05/17 06:24:45;;;;;;;11.47;2.80;;;;;;;;;;5091192;28;20478;-78
2022/05/17 06:27:11;;;;;;;5.43;3.07;;;;;;;;;;5093137;28;20414;-77
2022/05/17 06:29:37;;;;;;;4.07;2.33;;;;;;;;;;5093016;28;20920;-77
2022/05/17 06:32:03;;;;;;;8.00;2.87;;;;;;;;;;5092818;28;20458;-78
2022/05/17 06:34:30;;;;;;;6.50;2.60;;;;;;;;;;5092566;28;20438;-77
2022/05/17 06:36:56;;;;;;;9.60;2.80;;;;;;;;;;5075092;28;20892;-77
2022/05/17 06:39:22;;;;;;;7.80;2.90;;;;;;;;;;5092985;28;20498;-76
2022/05/17 06:41:48;;;;;;;5.30;2.53;;;;;;;;;;5093428;28;20906;-76
2022/05/17 06:44:14;;;;;;;4.20;2.23;;;;;;;;;;5092674;28;20847;-76
2022/05/17 06:46:40;;;;;;;5.90;2.60;;;;;;;;;;5092870;28;20437;-76
2022/05/17 06:49:06;;;;;;;4.10;2.73;;;;;;;;;;5093052;28;20880;-75
2022/05/17 06:51:35;;;;;;;3.50;2.20;;;;;;;;;;5091858;28;20446;-77
2022/05/17 06:54:01;;;;;;;7.90;2.93;;;;;;;;;;5092697;28;20505;-77
2022/05/17 06:56:27;;;;;;;7.60;2.63;;;;;;;;;;5091772;28;20419;-76
2022/05/17 06:58:53;;;;;;;5.60;2.50;;;;;;;;;;5092907;28;20407;-77
2022/05/17 07:01:19;;;;;;;6.10;2.67;;;;;;;;;;5091638;28;20856;-78
2022/05/17 07:03:45;;;;;;;7.00;2.60;;;;;;;;;;5092611;28;20437;-76
2022/05/17 07:06:11;;;;;;;7.10;2.13;;;;;;;;;;5095663;28;20569;-77
2022/05/17 07:08:37;;;;;;;2.90;2.67;;;;;;;;;;5096404;28;20430;-79
2022/05/17 07:13:48;;;;;;;4.70;2.63;;;;;;;;;;5096203;28;20396;-78
2022/05/17 07:16:14;;;;;;;3.70;2.30;;;;;;;;;;5094979;28;20912;-77
2022/05/17 07:18:40;;;;;;;6.53;2.93;;;;;;;;;;5096105;28;20441;-78
2022/05/17 07:21:06;;;;;;;7.17;2.47;;;;;;;;;;5094856;28;20415;-79
2022/05/17 07:23:33;;;;;;;8.60;2.43;;;;;;;;;;5095722;28;20718;-77
2022/05/17 07:25:59;;;;;;;6.13;2.60;;;;;;;;;;5095139;28;20462;-77
2022/05/17 07:28:25;;;;;;;10.20;2.67;;;;;;;;;;5094925;28;20407;-76
2022/05/17 07:30:51;;;;;;;3.97;2.27;;;;;;;;;;5094647;28;20418;-80
2022/05/17 07:33:18;;;;;;;3.73;2.60;;;;;;;;;;5094177;28;20430;-75
2022/05/17 07:35:44;;;;;;;9.10;2.50;;;;;;;;;;5095966;28;20453;-75
2022/05/17 07:38:10;;;;;;;5.60;2.50;;;;;;;;;;5095692;28;20399;-77
2022/05/17 07:40:39;;;;;;;4.70;2.53;;;;;;;;;;5095767;28;20755;-75
2022/05/17 07:43:05;;;;;;;7.37;2.30;;;;;;;;;;5088040;28;20454;-75
2022/05/17 07:45:33;;;;;;;5.97;2.37;;;;;;;;;;5084588;28;20548;-75
2022/05/17 07:48:02;;;;;;;4.13;2.23;;;;;;;;;;5092562;28;20402;-77
2022/05/17 07:50:28;;;;;;;4.33;1.70;;;;;;;;;;5095533;28;20418;-75
2022/05/17 07:52:54;;;;;;;4.53;2.07;;;;;;;;;;5095353;28;20407;-76
2022/05/17 07:55:22;;;;;;;3.97;2.07;;;;;;;;;;5094042;28;20859;-74
2022/05/17 07:57:48;;;;;;;4.60;2.00;;;;;;;;;;5095511;28;20479;-77
2022/05/17 08:00:15;;;;;;;5.00;2.87;;;;;;;;;;5094327;28;20423;-77
2022/05/17 08:02:42;;;;;;;5.40;2.80;;;;;;;;;;5094324;28;20422;-76
2022/05/17 08:05:09;;;;;;;8.70;3.23;;;;;;;;;;5094893;28;20998;-77
2022/05/17 08:07:36;;;;;;;5.83;2.97;;;;;;;;;;5095563;28;20425;-77
2022/05/17 08:10:03;;;;;;;7.07;3.33;;;;;;;;;;5077349;28;20922;-78
2022/05/17 08:12:29;;;;;;;9.37;2.97;;;;;;;;;;5077383;28;20411;-76
2022/05/17 08:14:55;;;;;;;8.73;3.10;;;;;;;;;;5093462;28;20848;-75
2022/05/17 08:17:21;;;;;;;4.10;3.10;;;;;;;;;;5094144;28;20423;-78
2022/05/17 08:19:47;;;;;;;9.73;3.77;;;;;;;;;;5093598;28;20571;-75
2022/05/17 08:22:14;;;;;;;10.00;3.50;;;;;;;;;;5094882;28;20509;-78
2022/05/17 08:27:31;;;;;;;5.20;2.90;;;;;;;;;;5095040;28;20451;-76
2022/05/17 08:29:58;;;;;;;10.40;4.17;;;;;;;;;;5095033;28;20399;-75
2022/05/17 08:35:08;;;;;;;9.33;3.27;;;;;;;;;;5094247;28;20526;-77
2022/05/17 08:37:34;;;;;;;10.27;3.87;;;;;;;;;;5094388;28;20907;-77
2022/05/17 08:40:00;;;;;;;12.00;3.73;;;;;;;;;;5093250;28;20498;-79
2022/05/17 08:42:33;;;;;;;10.30;3.77;;;;;;;;;;5094203;28;20421;-76
2022/05/17 08:45:02;;;;;;;6.10;3.70;;;;;;;;;;5085325;28;20455;-76
2022/05/17 08:47:39;;;;;;;9.50;3.60;;;;;;;;;;5084562;28;20430;-76
2022/05/17 08:50:15;;;;;;;9.03;3.83;;;;;;;;;;5084022;28;20402;-77
2022/05/17 08:52:42;;;;;;;9.83;4.03;;;;;;;;;;5087964;28;20788;-78
2022/05/17 08:55:27;;;;;;;9.00;4.20;;;;;;;;;;5094010;28;20485;-78
2022/05/17 08:58:05;;;;;;;6.83;3.50;;;;;;;;;;5094322;28;20447;-75
2022/05/17 09:00:50;;;;;;;9.93;3.20;;;;;;;;;;5094314;28;20407;-76
2022/05/17 09:03:32;;;;;;;6.30;3.23;;;;;;;;;;5094160;28;20401;-77
2022/05/17 09:06:17;;;;;;;6.10;3.67;;;;;;;;;;5094077;28;20477;-77
2022/05/17 09:08:46;;;;;;;6.00;3.07;;;;;;;;;;5094068;28;20399;-76
2022/05/17 09:11:23;;;;;;;7.40;3.23;;;;;;;;;;5092807;28;20422;-76
2022/05/17 09:13:53;;;;;;;6.67;2.97;;;;;;;;;;5093578;28;20429;-77
2022/05/17 09:16:21;;;;;;;9.00;3.27;;;;;;;;;;5094018;28;20399;-76
2022/05/17 09:18:48;;;;;;;7.60;3.57;;;;;;;;;;5094317;28;20414;-76
2022/05/17 09:21:28;;;;;;;6.27;3.80;;;;;;;;;;5093820;28;20406;-76
2022/05/17 09:23:55;;;;;;;7.40;3.00;;;;;;;;;;5093275;28;20431;-75
2022/05/17 09:26:21;;;;;;;6.90;3.00;;;;;;;;;;5093639;28;20795;-75
2022/05/17 09:28:47;;;;;;;4.03;2.10;;;;;;;;;;5092888;28;20399;-77
2022/05/17 09:31:17;;;;;;;9.70;3.00;;;;;;;;;;5093822;28;20533;-76
2022/05/17 09:33:43;;;;;;;4.77;2.23;;;;;;;;;;5074606;28;20485;-76
2022/05/17 09:36:13;;;;;;;6.17;2.60;;;;;;;;;;5073271;28;20419;-78
2022/05/17 09:38:39;;;;;;;5.30;2.33;;;;;;;;;;5073324;28;20396;-75
2022/05/17 09:41:06;;;;;;;6.83;2.17;;;;;;;;;;5073567;28;20497;-77
2022/05/17 09:43:53;;;;;;;3.40;1.87;;;;;;;;;;5072964;28;20404;-77
2022/05/17 09:46:28;;;;;;;4.43;2.00;;;;;;;;;;5073278;28;20566;-77
2022/05/17 09:54:36;;;;;;;3.37;1.30;;;;;;;;;;5073120;28;20426;-76
2022/05/17 09:57:14;;;;;;;2.47;1.27;;;;;;;;;;5073189;28;20436;-78
2022/05/17 09:59:40;;;;;;;1.83;1.13;;;;;;;;;;5073255;28;20785;-76
2022/05/17 10:02:24;;;;;;;2.80;1.30;;;;;;;;;;5073249;28;20494;-76
2022/05/17 10:04:51;;;;;;;2.43;1.37;;;;;;;;;;5072850;28;20467;-77
2022/05/17 10:07:18;;;;;;;3.17;1.80;;;;;;;;;;5073256;28;20771;-77
2022/05/17 10:09:45;;;;;;;4.03;1.70;;;;;;;;;;5073071;28;20447;-76
2022/05/17 10:12:11;;;;;;;2.97;1.33;;;;;;;;;;5072873;28;20416;-75
2022/05/17 10:14:43;;;;;;;3.93;1.57;;;;;;;;;;5072585;28;20427;-75
2022/05/17 10:17:14;;;;;;;3.30;1.60;;;;;;;;;;5073139;28;20408;-77
2022/05/17 10:19:58;;;;;;;2.87;1.20;;;;;;;;;;5072898;28;20490;-75
2022/05/17 10:22:28;;;;;;;3.10;1.63;;;;;;;;;;5072553;28;20486;-75
2022/05/17 10:25:12;;;;;;;3.10;1.20;;;;;;;;;;5072490;28;20448;-76
2022/05/17 10:27:41;;;;;;;4.70;1.33;;;;;;;;;;5072881;28;20462;-78
2022/05/17 10:30:10;;;;;;;3.70;1.13;;;;;;;;;;5072963;28;20730;-75
2022/05/17 10:32:39;;;;;;;5.93;1.30;;;;;;;;;;5072545;28;20446;-76
2022/05/17 10:35:15;;;;;;;3.13;1.20;;;;;;;;;;5072489;28;20436;-76
2022/05/17 10:38:04;;;;;;;1.73;1.10;;;;;;;;;;5073158;28;20507;-75
2022/05/17 10:40:30;;;;;;;3.80;1.20;;;;;;;;;;5074939;28;20994;-76
2022/05/17 10:42:57;;;;;;;7.43;1.30;;;;;;;;;;5076441;28;20486;-76
2022/05/17 10:45:32;;;;;;;3.23;1.00;;;;;;;;;;5076567;28;20527;-77
2022/05/17 10:48:12;;;;;;;2.53;0.90;;;;;;;;;;5076586;28;20807;-77
2022/05/17 10:50:46;;;;;;;3.37;1.23;;;;;;;;;;5075134;28;20922;-76
2022/05/17 10:53:11;;;;;;;3.27;1.20;;;;;;;;;;5076301;28;20420;-77
2022/05/17 10:55:46;;;;;;;2.93;1.30;;;;;;;;;;5076590;28;20489;-76
2022/05/17 10:58:28;;;;;;;4.90;1.10;;;;;;;;;;5076601;28;20494;-77
2022/05/17 11:01:20;;;;;;;4.10;1.40;;;;;;;;;;5076479;28;20423;-77
2022/05/17 11:03:49;;;;;;;1.90;0.90;;;;;;;;;;5052061;28;20497;-77
2022/05/17 11:06:27;;;;;;;2.90;1.10;;;;;;;;;;5076224;28;20536;-76
2022/05/17 11:08:53;;;;;;;3.00;1.37;;;;;;;;;;5075923;28;20407;-77
2022/05/17 11:11:35;;;;;;;1.40;1.00;;;;;;;;;;5076059;28;20418;-76
2022/05/17 11:14:05;;;;;;;2.40;1.30;;;;;;;;;;5075808;28;20427;-77
2022/05/17 11:16:40;;;;;;;1.40;0.90;;;;;;;;;;5076001;28;20446;-76
2022/05/17 11:19:18;;;;;;;1.83;1.20;;;;;;;;;;5075760;28;20411;-76
2022/05/17 11:21:49;;;;;;;1.90;1.10;;;;;;;;;;5075864;28;20415;-77
2022/05/17 11:24:31;;;;;;;5.00;1.30;;;;;;;;;;5075507;28;20430;-76
2022/05/17 11:27:17;;;;;;;2.90;1.20;;;;;;;;;;5075657;28;20509;-77
2022/05/17 11:29:44;;;;;;;3.00;1.20;;;;;;;;;;5075814;28;20415;-76
2022/05/17 11:32:28;;;;;;;2.30;1.33;;;;;;;;;;5075588;28;20803;-76
2022/05/17 11:34:56;;;;;;;2.50;1.27;;;;;;;;;;5075295;28;20676;-74
2022/05/17 11:37:33;;;;;;;2.43;1.27;;;;;;;;;;5075669;28;20501;-76
2022/05/17 11:40:01;;;;;;;1.57;0.90;;;;;;;;;;5075765;28;20501;-76
2022/05/17 11:45:44;;;;;;;2.90;1.43;;;;;;;;;;5075570;28;20984;-76
2022/05/17 11:48:15;;;;;;;1.37;1.00;;;;;;;;;;5075842;28;20405;-76
2022/05/17 11:50:42;;;;;;;3.70;1.23;;;;;;;;;;5075433;28;20415;-76
2022/05/17 11:53:24;;;;;;;1.53;0.80;;;;;;;;;;5074291;28;20413;-77
2022/05/17 11:56:20;;;;;;;2.10;0.93;;;;;;;;;;5075511;28;20448;-76
2022/05/17 11:58:48;;;;;;;2.43;1.40;;;;;;;;;;5066670;28;20564;-77
2022/05/17 12:01:29;;;;;;;3.40;1.30;;;;;;;;;;5075148;28;20776;-76
2022/05/17 12:04:01;;;;;;;3.73;1.43;;;;;;;;;;5074854;28;20525;-76
2022/05/17 12:06:29;;;;;;;4.00;1.07;;;;;;;;;;5075079;28;20461;-76
2022/05/17 12:08:55;;;;;;;2.93;1.10;;;;;;;;;;5075225;28;20426;-78
2022/05/17 12:11:26;;;;;;;2.60;1.30;;;;;;;;;;5074933;28;20410;-77
2022/05/17 12:14:11;;;;;;;2.37;1.10;;;;;;;;;;5074654;28;20446;-77
2022/05/17 12:16:38;;;;;;;3.80;1.30;;;;;;;;;;5074953;28;20427;-77
2022/05/17 12:19:12;;;;;;;4.87;1.23;;;;;;;;;;5074778;28;20408;-77
2022/05/17 12:21:50;;;;;;;3.17;1.13;;;;;;;;;;5074771;28;20409;-75
2022/05/17 12:24:35;;;;;;;2.53;1.00;;;;;;;;;;5074392;28;20419;-77
2022/05/17 12:27:10;;;;;;;2.30;1.10;;;;;;;;;;5074649;28;20514;-77
2022/05/17 12:32:29;;;;;;;3.17;1.20;;;;;;;;;;5074982;28;20562;-77
2022/05/17 12:34:57;;;;;;;2.73;1.20;;;;;;;;;;5074426;28;20439;-77
2022/05/17 12:37:27;;;;;;;2.33;1.00;;;;;;;;;;5074637;28;20404;-77
2022/05/17 12:43:03;;;;;;;2.53;0.90;;;;;;;;;;5074697;28;20433;-77
2022/05/17 12:45:31;;;;;;;4.90;1.20;;;;;;;;;;5074109;28;20455;-78
2022/05/17 12:47:58;;;;;;;2.70;1.10;;;;;;;;;;5074526;28;20896;-77
2022/05/17 12:50:30;;;;;;;1.47;1.03;;;;;;;;;;5074366;28;20436;-77
2022/05/17 12:52:57;;;;;;;1.83;0.90;;;;;;;;;;5074048;28;20400;-76
2022/05/17 12:55:25;;;;;;;2.90;0.93;;;;;;;;;;5073216;28;20432;-76
2022/05/17 12:57:52;;;;;;;2.30;0.70;;;;;;;;;;5074568;28;20416;-77
2022/05/17 13:00:25;;;;;;;2.30;0.93;;;;;;;;;;5073101;28;20518;-76
2022/05/17 13:02:52;;;;;;;3.90;1.00;;;;;;;;;;5073825;28;20773;-76
2022/05/17 13:05:30;;;;;;;2.20;1.30;;;;;;;;;;5073883;28;20463;-76
2022/05/17 13:08:05;;;;;;;1.47;0.90;;;;;;;;;;5072428;28;20454;-76
2022/05/17 13:10:34;;;;;;;3.00;0.80;;;;;;;;;;5072740;28;20931;-77
2022/05/17 13:13:12;;;;;;;1.13;0.90;;;;;;;;;;5073555;28;20904;-76
2022/05/17 13:15:38;;;;;;;1.10;0.70;;;;;;;;;;5073624;28;20843;-77
2022/05/17 13:18:05;;;;;;;1.73;1.03;;;;;;;;;;5072627;28;20995;-77
2022/05/17 13:20:32;;;;;;;1.80;1.00;;;;;;;;;;5073608;28;20412;-76
2022/05/17 13:22:58;;;;;;;3.80;0.90;;;;;;;;;;5073398;28;20422;-77
2022/05/17 13:25:29;;;;;;;1.20;1.00;;;;;;;;;;5073427;28;20550;-77
2022/05/17 13:27:55;;;;;;;3.73;1.30;;;;;;;;;;5072180;28;20408;-77
2022/05/17 13:30:24;;;;;;;4.70;1.10;;;;;;;;;;5073488;28;20468;-77
2022/05/17 13:32:50;;;;;;;1.70;0.90;;;;;;;;;;5073348;28;20786;-76
2022/05/17 13:35:21;;;;;;;1.77;0.83;;;;;;;;;;5073233;28;20432;-76
2022/05/17 13:38:02;;;;;;;1.93;0.80;;;;;;;;;;5073361;28;20403;-77
2022/05/17 13:40:38;;;;;;;2.10;1.00;;;;;;;;;;5073407;28;20410;-76
2022/05/17 13:43:25;;;;;;;2.73;0.87;;;;;;;;;;5073088;28;20457;-76
2022/05/17 13:45:59;;;;;;;2.40;1.00;;;;;;;;;;5061752;28;20466;-77
2022/05/17 13:48:26;;;;;;;2.97;1.20;;;;;;;;;;5073523;28;20410;-76
2022/05/17 13:50:57;;;;;;;2.60;1.00;;;;;;;;;;5073317;28;20407;-76
2022/05/17 13:53:23;;;;;;;3.43;1.40;;;;;;;;;;5072836;28;20416;-77
2022/05/17 13:55:49;;;;;;;1.60;1.10;;;;;;;;;;5073357;28;20784;-75
2022/05/17 13:58:15;;;;;;;3.60;1.40;;;;;;;;;;5073274;28;20853;-76
2022/05/17 14:00:57;;;;;;;2.80;1.20;;;;;;;;;;5073274;28;20411;-76
2022/05/17 14:03:24;;;;;;;2.13;1.07;;;;;;;;;;5072836;28;20418;-76
2022/05/17 14:05:55;;;;;;;5.10;1.30;;;;;;;;;;5072976;28;20514;-77
2022/05/17 14:13:59;;;;;;;1.27;0.90;;;;;;;;;;5073040;28;20507;-74
2022/05/17 14:16:28;;;;;;;1.73;0.93;;;;;;;;;;5076663;28;20419;-77
2022/05/17 14:18:54;;;;;;;3.20;1.20;;;;;;;;;;5077514;28;20480;-76
2022/05/17 14:21:20;;;;;;;1.13;0.93;;;;;;;;;;5077191;28;20411;-76
2022/05/17 14:23:48;;;;;;;1.77;1.00;;;;;;;;;;5076646;28;20439;-76
2022/05/17 14:26:15;;;;;;;2.93;1.13;;;;;;;;;;5076783;28;20463;-76
2022/05/17 14:28:41;;;;;;;4.43;1.40;;;;;;;;;;5076968;28;20423;-77
2022/05/17 14:31:18;;;;;;;2.80;1.20;;;;;;;;;;5075728;28;20517;-77
2022/05/17 14:33:44;;;;;;;1.70;0.93;;;;;;;;;;5075200;28;20455;-75
2022/05/17 14:36:13;;;;;;;3.67;1.10;;;;;;;;;;5076913;28;20456;-76
2022/05/17 14:38:39;;;;;;;2.67;1.50;;;;;;;;;;5076866;28;20408;-76
2022/05/17 14:41:05;;;;;;;2.13;1.23;;;;;;;;;;5077055;28;20395;-76
2022/05/17 14:43:31;;;;;;;3.77;1.50;;;;;;;;;;5076586;28;20766;-76
2022/05/17 14:45:58;;;;;;;5.20;1.20;;;;;;;;;;5059210;28;20474;-76
2022/05/17 14:48:25;;;;;;;1.73;1.17;;;;;;;;;;5076776;28;20420;-75
2022/05/17 14:50:51;;;;;;;2.07;1.30;;;;;;;;;;5077584;28;20419;-79
2022/05/17 14:53:17;;;;;;;2.70;1.30;;;;;;;;;;5077525;28;20408;-78
2022/05/17 14:55:43;;;;;;;2.17;1.43;;;;;;;;;;5076814;28;20489;-76
2022/05/17 14:58:09;;;;;;;2.10;1.30;;;;;;;;;;5075201;28;20420;-76
2022/05/17 15:00:36;;;;;;;1.53;1.10;;;;;;;;;;5076396;28;20423;-78
2022/05/17 15:03:04;;;;;;;2.83;1.30;;;;;;;;;;5076547;28;20777;-78
2022/05/17 15:05:34;;;;;;;2.00;1.17;;;;;;;;;;5076465;28;20466;-76
2022/05/17 15:08:01;;;;;;;1.50;0.87;;;;;;;;;;5076208;28;20407;-78
2022/05/17 15:10:28;;;;;;;5.70;1.40;;;;;;;;;;5076131;28;20400;-77
2022/05/17 15:12:55;;;;;;;1.90;1.10;;;;;;;;;;5075756;28;20773;-75
2022/05/17 15:15:22;;;;;;;2.37;1.40;;;;;;;;;;5076178;28;20431;-78
2022/05/17 15:17:59;;;;;;;2.17;1.27;;;;;;;;;;5076311;28;20506;-76
2022/05/17 15:20:25;;;;;;;3.53;1.00;;;;;;;;;;5076073;28;20500;-78
2022/05/17 15:22:51;;;;;;;2.57;1.17;;;;;;;;;;5074499;28;20435;-78
2022/05/17 15:25:18;;;;;;;1.87;1.00;;;;;;;;;;5075729;28;20463;-79
2022/05/17 15:27:44;;;;;;;3.37;1.87;;;;;;;;;;5075875;28;20411;-78